sensor_id;sensor_type;location;lat;lon;timestamp;pressure;altitude;pressure_sealevel;temperature;humidity
49341;BME280;35209;51.050;13.678;2023-11-19T00:01:45;149626.44;;;3.81;100.00
49341;BME280;35209;51.050;13.678;2023-11-19T00:06:48;149618.72;;;3.78;100.00
49341;BME280;35209;51.050;13.678;2023-11-19T00:11:50;149636.72;;;3.85;100.00
49341;BME280;35209;51.050;13.678;2023-11-19T00:16:55;149638.00;;;3.86;100.00
49341;BME280;35209;51.050;13.678;2023-11-19T00:21:57;149658.50;;;3.94;100.00
49341;BME280;35209;51.050;13.678;2023-11-19T00:27:04;149631.56;;;3.83;100.00
49341;BME280;35209;51.050;13.678;2023-11-19T00:32:05;149603.34;;;3.72;100.00
49341;BME280;35209;51.050;13.678;2023-11-19T00:37:09;149613.56;;;3.76;100.00
49341;BME280;35209;51.050;13.678;2023-11-19T00:42:12;149646.97;;;3.89;100.00
49341;BME280;35209;51.050;13.678;2023-11-19T00:47:14;149625.13;;;3.80;100.00
49341;BME280;35209;51.050;13.678;2023-11-19T00:52:16;149573.78;;;3.60;100.00
49341;BME280;35209;51.050;13.678;2023-11-19T00:57:18;149573.78;;;3.60;100.00
49341;BME280;35209;51.050;13.678;2023-11-19T01:02:20;149559.66;;;3.54;100.00
49341;BME280;35209;51.050;13.678;2023-11-19T01:07:22;149539.13;;;3.46;100.00
49341;BME280;35209;51.050;13.678;2023-11-19T01:12:25;149585.34;;;3.65;100.00
49341;BME280;35209;51.050;13.678;2023-11-19T01:17:27;149612.28;;;3.75;100.00
49341;BME280;35209;51.050;13.678;2023-11-19T01:22:29;149568.63;;;3.58;100.00
49341;BME280;35209;51.050;13.678;2023-11-19T01:27:31;149573.78;;;3.60;100.00
49341;BME280;35209;51.050;13.678;2023-11-19T01:32:33;149581.50;;;3.63;100.00
49341;BME280;35209;51.050;13.678;2023-11-19T01:37:34;149575.06;;;3.61;100.00
49341;BME280;35209;51.050;13.678;2023-11-19T01:42:38;149567.34;;;3.58;100.00
49341;BME280;35209;51.050;13.678;2023-11-19T01:47:40;149587.91;;;3.66;100.00
49341;BME280;35209;51.050;13.678;2023-11-19T01:52:42;149644.41;;;3.88;100.00
49341;BME280;35209;51.050;13.678;2023-11-19T01:57:44;149616.16;;;3.77;100.00
49341;BME280;35209;51.050;13.678;2023-11-19T02:02:47;149602.00;;;3.71;100.00
49341;BME280;35209;51.050;13.678;2023-11-19T02:07:50;149566.06;;;3.57;100.00
49341;BME280;35209;51.050;13.678;2023-11-19T02:12:53;149654.69;;;3.92;100.00
49341;BME280;35209;51.050;13.678;2023-11-19T02:18:27;149645.69;;;3.89;100.00
49341;BME280;35209;51.050;13.678;2023-11-19T02:23:32;149617.44;;;3.77;100.00
49341;BME280;35209;51.050;13.678;2023-11-19T02:28:38;149581.50;;;3.63;100.00
49341;BME280;35209;51.050;13.678;2023-11-19T02:33:40;149616.16;;;3.77;100.00
49341;BME280;35209;51.050;13.678;2023-11-19T02:38:42;149602.00;;;3.71;100.00
49341;BME280;35209;51.050;13.678;2023-11-19T02:43:44;149625.13;;;3.80;100.00
49341;BME280;35209;51.050;13.678;2023-11-19T02:48:46;149695.78;;;4.09;100.00
49341;BME280;35209;51.050;13.678;2023-11-19T02:53:48;149700.91;;;4.11;100.00
49341;BME280;35209;51.050;13.678;2023-11-19T02:58:50;149688.06;;;4.05;100.00
49341;BME280;35209;51.050;13.678;2023-11-19T03:03:52;149679.06;;;4.02;100.00
49341;BME280;35209;51.050;13.678;2023-11-19T03:08:58;149685.50;;;4.04;100.00
49341;BME280;35209;51.050;13.678;2023-11-19T03:14:00;149702.19;;;4.11;100.00
49341;BME280;35209;51.050;13.678;2023-11-19T03:19:02;149835.81;;;4.64;100.00
49341;BME280;35209;51.050;13.678;2023-11-19T03:24:06;149805.00;;;4.52;100.00
49341;BME280;35209;51.050;13.678;2023-11-19T03:29:08;149837.09;;;4.65;100.00
49341;BME280;35209;51.050;13.678;2023-11-19T03:34:10;149826.84;;;4.61;100.00
49341;BME280;35209;51.050;13.678;2023-11-19T03:39:12;149842.25;;;4.67;100.00
49341;BME280;35209;51.050;13.678;2023-11-19T03:44:14;149783.16;;;4.43;100.00
49341;BME280;35209;51.050;13.678;2023-11-19T03:49:16;149727.91;;;4.21;100.00
49341;BME280;35209;51.050;13.678;2023-11-19T03:54:18;149770.28;;;4.38;100.00
49341;BME280;35209;51.050;13.678;2023-11-19T03:59:21;149808.84;;;4.53;100.00
49341;BME280;35209;51.050;13.678;2023-11-19T04:04:22;149811.41;;;4.54;100.00
49341;BME280;35209;51.050;13.678;2023-11-19T04:09:24;149740.75;;;4.26;100.00
49341;BME280;35209;51.050;13.678;2023-11-19T04:14:26;149807.56;;;4.53;100.00
49341;BME280;35209;51.050;13.678;2023-11-19T04:19:28;149803.69;;;4.51;100.00
49341;BME280;35209;51.050;13.678;2023-11-19T04:24:31;149842.25;;;4.67;100.00
49341;BME280;35209;51.050;13.678;2023-11-19T04:29:32;149874.41;;;4.79;100.00
49341;BME280;35209;51.050;13.678;2023-11-19T04:34:35;149772.88;;;4.39;100.00
49341;BME280;35209;51.050;13.678;2023-11-19T04:39:39;149770.28;;;4.38;100.00
49341;BME280;35209;51.050;13.678;2023-11-19T04:44:42;149758.72;;;4.34;100.00
49341;BME280;35209;51.050;13.678;2023-11-19T04:49:44;149816.56;;;4.57;100.00
49341;BME280;35209;51.050;13.678;2023-11-19T04:54:46;149790.84;;;4.46;100.00
49341;BME280;35209;51.050;13.678;2023-11-19T04:59:49;149762.59;;;4.35;100.00
49341;BME280;35209;51.050;13.678;2023-11-19T05:04:51;149788.28;;;4.45;100.00
49341;BME280;35209;51.050;13.678;2023-11-19T05:09:53;149712.47;;;4.15;100.00
49341;BME280;35209;51.050;13.678;2023-11-19T05:14:55;149709.91;;;4.14;100.00
49341;BME280;35209;51.050;13.678;2023-11-19T05:19:56;149688.06;;;4.05;100.00
49341;BME280;35209;51.050;13.678;2023-11-19T05:24:59;149711.19;;;4.15;100.00
49341;BME280;35209;51.050;13.678;2023-11-19T05:30:02;149679.06;;;4.02;100.00
49341;BME280;35209;51.050;13.678;2023-11-19T05:35:04;149704.78;;;4.12;100.00
49341;BME280;35209;51.050;13.678;2023-11-19T05:40:07;149706.06;;;4.13;100.00
49341;BME280;35209;51.050;13.678;2023-11-19T05:45:16;149718.91;;;4.18;100.00
49341;BME280;35209;51.050;13.678;2023-11-19T05:50:18;149649.56;;;3.90;100.00
49341;BME280;35209;51.050;13.678;2023-11-19T05:55:20;149721.47;;;4.19;100.00
49341;BME280;35209;51.050;13.678;2023-11-19T06:00:22;149709.91;;;4.14;100.00
49341;BME280;35209;51.050;13.678;2023-11-19T06:05:24;149702.19;;;4.11;100.00
49341;BME280;35209;51.050;13.678;2023-11-19T06:10:27;149760.03;;;4.34;100.00
49341;BME280;35209;51.050;13.678;2023-11-19T06:15:33;149761.31;;;4.35;100.00
49341;BME280;35209;51.050;13.678;2023-11-19T06:20:35;149747.16;;;4.29;100.00
49341;BME280;35209;51.050;13.678;2023-11-19T06:25:39;149748.47;;;4.29;100.00
49341;BME280;35209;51.050;13.678;2023-11-19T06:30:41;149748.47;;;4.29;100.00
49341;BME280;35209;51.050;13.678;2023-11-19T06:35:45;149733.03;;;4.23;100.00
49341;BME280;35209;51.050;13.678;2023-11-19T06:40:47;149731.75;;;4.23;100.00
49341;BME280;35209;51.050;13.678;2023-11-19T06:45:53;149686.78;;;4.05;100.00
49341;BME280;35209;51.050;13.678;2023-11-19T06:50:55;149727.91;;;4.21;100.00
49341;BME280;35209;51.050;13.678;2023-11-19T06:55:57;149751.03;;;4.30;100.00
49341;BME280;35209;51.050;13.678;2023-11-19T07:00:59;149747.16;;;4.29;100.00
49341;BME280;35209;51.050;13.678;2023-11-19T07:06:00;149779.28;;;4.42;100.00
49341;BME280;35209;51.050;13.678;2023-11-19T07:11:02;149779.28;;;4.42;100.00
49341;BME280;35209;51.050;13.678;2023-11-19T07:16:05;149807.56;;;4.53;100.00
49341;BME280;35209;51.050;13.678;2023-11-19T07:21:07;149780.56;;;4.42;100.00
49341;BME280;35209;51.050;13.678;2023-11-19T07:26:12;149794.72;;;4.48;100.00
49341;BME280;35209;51.050;13.678;2023-11-19T07:31:14;149784.44;;;4.44;100.00
49341;BME280;35209;51.050;13.678;2023-11-19T07:36:15;149812.69;;;4.55;100.00
49341;BME280;35209;51.050;13.678;2023-11-19T07:41:18;149758.72;;;4.34;100.00
49341;BME280;35209;51.050;13.678;2023-11-19T07:46:19;149810.13;;;4.54;100.00
49341;BME280;35209;51.050;13.678;2023-11-19T07:51:21;149856.38;;;4.72;100.00
49341;BME280;35209;51.050;13.678;2023-11-19T07:56:23;149891.09;;;4.86;100.00
49341;BME280;35209;51.050;13.678;2023-11-19T08:01:25;149891.09;;;4.86;100.00
49341;BME280;35209;51.050;13.678;2023-11-19T08:06:27;149930.97;;;5.02;100.00
49341;BME280;35209;51.050;13.678;2023-11-19T08:11:29;149960.53;;;5.14;100.00
49341;BME280;35209;51.050;13.678;2023-11-19T08:16:31;150037.66;;;5.44;100.00
49341;BME280;35209;51.050;13.678;2023-11-19T08:21:33;150249.97;;;6.28;100.00
49341;BME280;35209;51.050;13.678;2023-11-19T08:26:35;150440.53;;;7.04;100.00
49341;BME280;35209;51.050;13.678;2023-11-19T08:31:37;150560.25;;;7.51;100.00
49341;BME280;35209;51.050;13.678;2023-11-19T08:36:39;150678.81;;;7.98;100.00
49341;BME280;35209;51.050;13.678;2023-11-19T08:41:40;150774.16;;;8.36;100.00
49341;BME280;35209;51.050;13.678;2023-11-19T08:46:48;150903.13;;;8.87;100.00
49341;BME280;35209;51.050;13.678;2023-11-19T08:51:50;151030.81;;;9.38;100.00
49341;BME280;35209;51.050;13.678;2023-11-19T08:56:52;151112.13;;;9.70;100.00
49341;BME280;35209;51.050;13.678;2023-11-19T09:01:54;151122.41;;;9.74;100.00
49341;BME280;35209;51.050;13.678;2023-11-19T09:06:57;151047.59;;;9.44;100.00
49341;BME280;35209;51.050;13.678;2023-11-19T09:11:59;150994.69;;;9.23;100.00
49341;BME280;35209;51.050;13.678;2023-11-19T09:17:01;151038.56;;;9.41;100.00
49341;BME280;35209;51.050;13.678;2023-11-19T09:22:02;151081.13;;;9.57;100.00
49341;BME280;35209;51.050;13.678;2023-11-19T09:27:05;151057.94;;;9.48;100.00
49341;BME280;35209;51.050;13.678;2023-11-19T09:32:06;151057.94;;;9.48;100.00
49341;BME280;35209;51.050;13.678;2023-11-19T09:37:09;151082.44;;;9.58;100.00
49341;BME280;35209;51.050;13.678;2023-11-19T09:42:13;151119.81;;;9.73;100.00
49341;BME280;35209;51.050;13.678;2023-11-19T09:47:17;151121.13;;;9.73;100.00
49341;BME280;35209;51.050;13.678;2023-11-19T09:52:20;151188.22;;;10.00;100.00
49341;BME280;35209;51.050;13.678;2023-11-19T09:57:22;151279.94;;;10.36;100.00
49341;BME280;35209;51.050;13.678;2023-11-19T10:02:25;151292.84;;;10.41;100.00
49341;BME280;35209;51.050;13.678;2023-11-19T10:07:30;151295.44;;;10.42;100.00
49341;BME280;35209;51.050;13.678;2023-11-19T10:12:31;151270.91;;;10.32;100.00
49341;BME280;35209;51.050;13.678;2023-11-19T10:17:34;151286.38;;;10.39;100.00
49341;BME280;35209;51.050;13.678;2023-11-19T10:22:39;151318.66;;;10.51;100.00
49341;BME280;35209;51.050;13.678;2023-11-19T10:27:41;151331.56;;;10.56;100.00
49341;BME280;35209;51.050;13.678;2023-11-19T10:32:43;151360.00;;;10.68;100.00
49341;BME280;35209;51.050;13.678;2023-11-19T10:37:45;151400.00;;;10.83;100.00
49341;BME280;35209;51.050;13.678;2023-11-19T10:42:47;151427.16;;;10.94;100.00
49341;BME280;35209;51.050;13.678;2023-11-19T10:47:51;151520.13;;;11.31;99.21
49341;BME280;35209;51.050;13.678;2023-11-19T10:52:56;151460.72;;;11.07;100.00
49341;BME280;35209;51.050;13.678;2023-11-19T10:58:04;151460.72;;;11.07;100.00
49341;BME280;35209;51.050;13.678;2023-11-19T11:03:25;151460.72;;;11.07;100.00
49341;BME280;35209;51.050;13.678;2023-11-19T11:08:30;151456.81;;;11.06;100.00
49341;BME280;35209;51.050;13.678;2023-11-19T11:13:33;151454.25;;;11.05;100.00
49341;BME280;35209;51.050;13.678;2023-11-19T11:18:35;151460.72;;;11.07;100.00
49341;BME280;35209;51.050;13.678;2023-11-19T11:23:52;151458.09;;;11.06;100.00
49341;BME280;35209;51.050;13.678;2023-11-19T11:39:52;151520.13;;;11.31;99.02
49341;BME280;35209;51.050;13.678;2023-11-19T11:45:04;151520.13;;;11.31;96.32
49341;BME280;35209;51.050;13.678;2023-11-19T11:50:14;151509.81;;;11.27;95.99
49341;BME280;35209;51.050;13.678;2023-11-19T11:55:16;151582.19;;;11.55;93.14
49341;BME280;35209;51.050;13.678;2023-11-19T12:00:29;151610.56;;;11.67;92.53
49341;BME280;35209;51.050;13.678;2023-11-19T12:05:31;151739.91;;;12.18;90.72
49341;BME280;35209;51.050;13.678;2023-11-19T12:10:45;151790.28;;;12.37;86.20
49341;BME280;35209;51.050;13.678;2023-11-19T12:16:09;151694.66;;;12.00;88.86
49341;BME280;35209;51.050;13.678;2023-11-19T12:21:27;151714.00;;;12.07;88.33
49341;BME280;35209;51.050;13.678;2023-11-19T12:26:33;151742.47;;;12.19;87.75
49341;BME280;35209;51.050;13.678;2023-11-19T12:31:36;151769.59;;;12.29;86.64
49341;BME280;35209;51.050;13.678;2023-11-19T12:36:38;151770.88;;;12.30;84.73
49341;BME280;35209;51.050;13.678;2023-11-19T12:41:50;151789.00;;;12.37;82.91
49341;BME280;35209;51.050;13.678;2023-11-19T12:47:03;151767.03;;;12.28;84.88
49341;BME280;35209;51.050;13.678;2023-11-19T12:52:12;151748.91;;;12.21;83.64
49341;BME280;35209;51.050;13.678;2023-11-19T12:57:14;151755.38;;;12.24;83.17
49341;BME280;35209;51.050;13.678;2023-11-19T13:02:16;151774.81;;;12.31;82.00
49341;BME280;35209;51.050;13.678;2023-11-19T13:07:21;151751.53;;;12.22;81.75
49341;BME280;35209;51.050;13.678;2023-11-19T13:12:23;151685.59;;;11.96;83.19
49341;BME280;35209;51.050;13.678;2023-11-19T13:17:25;151728.25;;;12.13;80.41
49341;BME280;35209;51.050;13.678;2023-11-19T13:22:27;151703.66;;;12.03;79.95
49341;BME280;35209;51.050;13.678;2023-11-19T13:27:29;151712.72;;;12.07;78.88
49341;BME280;35209;51.050;13.678;2023-11-19T13:32:30;151693.31;;;11.99;79.47
49341;BME280;35209;51.050;13.678;2023-11-19T13:37:32;151680.41;;;11.94;77.19
49341;BME280;35209;51.050;13.678;2023-11-19T13:42:34;151618.34;;;11.70;79.26
49341;BME280;35209;51.050;13.678;2023-11-19T13:47:36;151664.91;;;11.88;75.24
49341;BME280;35209;51.050;13.678;2023-11-19T13:52:39;151695.94;;;12.00;74.32
49341;BME280;35209;51.050;13.678;2023-11-19T13:57:42;151733.41;;;12.15;72.62
49341;BME280;35209;51.050;13.678;2023-11-19T14:02:45;151760.53;;;12.26;69.24
49341;BME280;35209;51.050;13.678;2023-11-19T14:07:48;151734.69;;;12.16;70.57
49341;BME280;35209;51.050;13.678;2023-11-19T14:12:51;151717.91;;;12.09;70.24
49341;BME280;35209;51.050;13.678;2023-11-19T14:17:53;151711.44;;;12.06;69.67
49341;BME280;35209;51.050;13.678;2023-11-19T14:22:55;151671.34;;;11.91;70.66
49341;BME280;35209;51.050;13.678;2023-11-19T14:27:56;151652.00;;;11.83;71.30
49341;BME280;35209;51.050;13.678;2023-11-19T14:32:58;151641.59;;;11.79;72.35
49341;BME280;35209;51.050;13.678;2023-11-19T14:38:00;151659.72;;;11.86;71.96
49341;BME280;35209;51.050;13.678;2023-11-19T14:43:06;151609.28;;;11.66;74.77
49341;BME280;35209;51.050;13.678;2023-11-19T14:48:08;151602.81;;;11.63;75.85
49341;BME280;35209;51.050;13.678;2023-11-19T14:53:11;151576.97;;;11.53;77.24
49341;BME280;35209;51.050;13.678;2023-11-19T14:58:13;151578.25;;;11.54;77.12
49341;BME280;35209;51.050;13.678;2023-11-19T15:03:18;151567.94;;;11.50;77.71
49341;BME280;35209;51.050;13.678;2023-11-19T15:08:21;151552.44;;;11.44;77.90
49341;BME280;35209;51.050;13.678;2023-11-19T15:13:22;151494.31;;;11.21;79.06
49341;BME280;35209;51.050;13.678;2023-11-19T15:18:24;151397.44;;;10.82;81.33
49341;BME280;35209;51.050;13.678;2023-11-19T15:23:26;151414.25;;;10.89;81.15
49341;BME280;35209;51.050;13.678;2023-11-19T15:28:28;151363.84;;;10.69;81.48
49341;BME280;35209;51.050;13.678;2023-11-19T15:33:29;151339.31;;;10.59;82.71
49341;BME280;35209;51.050;13.678;2023-11-19T15:38:31;151313.53;;;10.49;82.13
49341;BME280;35209;51.050;13.678;2023-11-19T15:43:33;151339.31;;;10.59;81.43
49341;BME280;35209;51.050;13.678;2023-11-19T15:48:35;151314.81;;;10.50;82.01
49341;BME280;35209;51.050;13.678;2023-11-19T15:53:37;151300.56;;;10.44;81.90
49341;BME280;35209;51.050;13.678;2023-11-19T15:58:40;151309.63;;;10.48;81.92
49341;BME280;35209;51.050;13.678;2023-11-19T16:03:42;151290.22;;;10.40;82.05
49341;BME280;35209;51.050;13.678;2023-11-19T16:08:47;151255.38;;;10.26;83.76
49341;BME280;35209;51.050;13.678;2023-11-19T16:13:49;151242.44;;;10.21;83.70
49341;BME280;35209;51.050;13.678;2023-11-19T16:18:51;151225.69;;;10.15;84.13
49341;BME280;35209;51.050;13.678;2023-11-19T16:23:53;151259.28;;;10.28;83.65
49341;BME280;35209;51.050;13.678;2023-11-19T16:28:55;151217.91;;;10.11;84.19
49341;BME280;35209;51.050;13.678;2023-11-19T16:33:58;151250.25;;;10.24;83.36
49341;BME280;35209;51.050;13.678;2023-11-19T16:39:01;151229.53;;;10.16;83.64
49341;BME280;35209;51.050;13.678;2023-11-19T16:44:06;151221.78;;;10.13;84.32
49341;BME280;35209;51.050;13.678;2023-11-19T16:49:09;151245.00;;;10.22;82.90
49341;BME280;35209;51.050;13.678;2023-11-19T16:54:11;151217.91;;;10.11;83.25
49341;BME280;35209;51.050;13.678;2023-11-19T16:59:14;151250.25;;;10.24;81.38
49341;BME280;35209;51.050;13.678;2023-11-19T17:04:16;151300.56;;;10.44;80.06
49341;BME280;35209;51.050;13.678;2023-11-19T17:09:18;151278.63;;;10.35;79.95
49341;BME280;35209;51.050;13.678;2023-11-19T17:14:20;151270.91;;;10.32;80.13
49341;BME280;35209;51.050;13.678;2023-11-19T17:19:40;151261.84;;;10.29;80.44
49341;BME280;35209;51.050;13.678;2023-11-19T17:24:43;151265.72;;;10.30;80.24
49341;BME280;35209;51.050;13.678;2023-11-19T17:29:45;151290.22;;;10.40;78.79
49341;BME280;35209;51.050;13.678;2023-11-19T17:34:47;151194.69;;;10.02;80.91
49341;BME280;35209;51.050;13.678;2023-11-19T17:39:48;151154.66;;;9.86;81.28
49341;BME280;35209;51.050;13.678;2023-11-19T17:44:50;151146.94;;;9.83;81.07
49341;BME280;35209;51.050;13.678;2023-11-19T17:49:54;151170.19;;;9.93;80.37
49341;BME280;35209;51.050;13.678;2023-11-19T17:54:56;151186.94;;;9.99;79.90
49341;BME280;35209;51.050;13.678;2023-11-19T17:59:57;151183.06;;;9.98;79.71
49341;BME280;35209;51.050;13.678;2023-11-19T18:04:59;151131.44;;;9.77;80.76
49341;BME280;35209;51.050;13.678;2023-11-19T18:10:01;151192.13;;;10.01;78.63
49341;BME280;35209;51.050;13.678;2023-11-19T18:15:07;151236.00;;;10.19;77.16
49341;BME280;35209;51.050;13.678;2023-11-19T18:20:11;151225.69;;;10.15;77.48
49341;BME280;35209;51.050;13.678;2023-11-19T18:25:14;151203.75;;;10.06;78.24
49341;BME280;35209;51.050;13.678;2023-11-19T18:30:19;151224.41;;;10.14;77.52
49341;BME280;35209;51.050;13.678;2023-11-19T18:35:21;151190.84;;;10.01;79.07
49341;BME280;35209;51.050;13.678;2023-11-19T18:40:26;151174.03;;;9.94;79.92
49341;BME280;35209;51.050;13.678;2023-11-19T18:45:28;151152.09;;;9.85;79.98
49341;BME280;35209;51.050;13.678;2023-11-19T18:50:30;151153.38;;;9.86;79.59
49341;BME280;35209;51.050;13.678;2023-11-19T18:55:52;151134.06;;;9.78;79.70
49341;BME280;35209;51.050;13.678;2023-11-19T19:01:00;151132.72;;;9.78;79.52
49341;BME280;35209;51.050;13.678;2023-11-19T19:06:12;151114.69;;;9.71;79.67
49341;BME280;35209;51.050;13.678;2023-11-19T19:11:14;151141.78;;;9.81;79.00
49341;BME280;35209;51.050;13.678;2023-11-19T19:16:16;151109.50;;;9.69;80.14
49341;BME280;35209;51.050;13.678;2023-11-19T19:21:19;151125.00;;;9.75;80.09
49341;BME280;35209;51.050;13.678;2023-11-19T19:26:20;151167.63;;;9.92;79.01
49341;BME280;35209;51.050;13.678;2023-11-19T19:31:23;151230.81;;;10.17;78.02
49341;BME280;35209;51.050;13.678;2023-11-19T19:36:27;151219.22;;;10.12;78.53
49341;BME280;35209;51.050;13.678;2023-11-19T19:41:33;151265.72;;;10.30;77.93
49341;BME280;35209;51.050;13.678;2023-11-19T19:46:35;151290.22;;;10.40;77.17
49341;BME280;35209;51.050;13.678;2023-11-19T19:51:37;151261.84;;;10.29;78.60
49341;BME280;35209;51.050;13.678;2023-11-19T19:56:39;151292.84;;;10.41;77.82
49341;BME280;35209;51.050;13.678;2023-11-19T20:01:52;151323.81;;;10.53;77.48
49341;BME280;35209;51.050;13.678;2023-11-19T20:06:54;151304.47;;;10.46;77.93
49341;BME280;35209;51.050;13.678;2023-11-19T20:11:56;151305.75;;;10.46;78.38
49341;BME280;35209;51.050;13.678;2023-11-19T20:16:59;151323.81;;;10.53;78.34
49341;BME280;35209;51.050;13.678;2023-11-19T20:22:04;151321.22;;;10.52;78.55
49341;BME280;35209;51.050;13.678;2023-11-19T20:27:06;151291.56;;;10.41;79.37
49341;BME280;35209;51.050;13.678;2023-11-19T20:32:09;151300.56;;;10.44;79.62
49341;BME280;35209;51.050;13.678;2023-11-19T20:37:11;151285.09;;;10.38;80.34
49341;BME280;35209;51.050;13.678;2023-11-19T20:42:13;151296.72;;;10.43;80.13
49341;BME280;35209;51.050;13.678;2023-11-19T20:47:15;151308.31;;;10.47;80.47
49341;BME280;35209;51.050;13.678;2023-11-19T20:52:17;151321.22;;;10.52;80.63
49341;BME280;35209;51.050;13.678;2023-11-19T20:57:19;151305.75;;;10.46;82.70
49341;BME280;35209;51.050;13.678;2023-11-19T21:02:21;151273.47;;;10.33;87.46
49341;BME280;35209;51.050;13.678;2023-11-19T21:07:22;151254.09;;;10.26;88.88
49341;BME280;35209;51.050;13.678;2023-11-19T21:12:25;151224.41;;;10.14;90.18
49341;BME280;35209;51.050;13.678;2023-11-19T21:17:27;151211.44;;;10.09;90.07
49341;BME280;35209;51.050;13.678;2023-11-19T21:22:29;151232.09;;;10.17;89.51
49341;BME280;35209;51.050;13.678;2023-11-19T21:27:31;151207.59;;;10.07;90.07
49341;BME280;35209;51.050;13.678;2023-11-19T21:32:33;151224.41;;;10.14;89.01
49341;BME280;35209;51.050;13.678;2023-11-19T21:37:35;151219.22;;;10.12;89.36
49341;BME280;35209;51.050;13.678;2023-11-19T21:42:37;151194.69;;;10.02;89.45
49341;BME280;35209;51.050;13.678;2023-11-19T21:47:39;151208.88;;;10.08;88.89
49341;BME280;35209;51.050;13.678;2023-11-19T21:52:41;151250.25;;;10.24;87.38
49341;BME280;35209;51.050;13.678;2023-11-19T21:57:42;151259.28;;;10.28;87.47
49341;BME280;35209;51.050;13.678;2023-11-19T22:02:47;151279.94;;;10.36;89.21
49341;BME280;35209;51.050;13.678;2023-11-19T22:07:51;151252.81;;;10.25;92.86
49341;BME280;35209;51.050;13.678;2023-11-19T22:12:53;151197.25;;;10.03;95.95
49341;BME280;35209;51.050;13.678;2023-11-19T22:17:55;151212.78;;;10.09;94.04
49341;BME280;35209;51.050;13.678;2023-11-19T22:22:57;151197.25;;;10.03;94.59
49341;BME280;35209;51.050;13.678;2023-11-19T22:27:59;151201.16;;;10.05;93.50
49341;BME280;35209;51.050;13.678;2023-11-19T22:33:04;151245.00;;;10.22;91.53
49341;BME280;35209;51.050;13.678;2023-11-19T22:38:08;151232.09;;;10.17;92.25
49341;BME280;35209;51.050;13.678;2023-11-19T22:43:10;151242.44;;;10.21;92.36
49341;BME280;35209;51.050;13.678;2023-11-19T22:48:12;151215.34;;;10.10;95.03
49341;BME280;35209;51.050;13.678;2023-11-19T22:53:14;151212.78;;;10.09;94.48
49341;BME280;35209;51.050;13.678;2023-11-19T22:58:17;151208.88;;;10.08;94.02
49341;BME280;35209;51.050;13.678;2023-11-19T23:03:20;151198.53;;;10.04;93.99
49341;BME280;35209;51.050;13.678;2023-11-19T23:08:21;151207.59;;;10.07;92.73
49341;BME280;35209;51.050;13.678;2023-11-19T23:13:24;151215.34;;;10.10;92.30
49341;BME280;35209;51.050;13.678;2023-11-19T23:18:27;151229.53;;;10.16;92.46
49341;BME280;35209;51.050;13.678;2023-11-19T23:23:29;151217.91;;;10.11;93.54
49341;BME280;35209;51.050;13.678;2023-11-19T23:28:30;151174.03;;;9.94;94.70
49341;BME280;35209;51.050;13.678;2023-11-19T23:33:32;151219.22;;;10.12;91.81
49341;BME280;35209;51.050;13.678;2023-11-19T23:38:35;151263.16;;;10.29;88.94
49341;BME280;35209;51.050;13.678;2023-11-19T23:43:37;151254.09;;;10.26;89.29
49341;BME280;35209;51.050;13.678;2023-11-19T23:48:40;151265.72;;;10.30;88.68
49341;BME280;35209;51.050;13.678;2023-11-19T23:53:45;151256.66;;;10.27;87.84
49341;BME280;35209;51.050;13.678;2023-11-19T23:58:47;151288.94;;;10.40;86.46
